ラパス の空港の天気 - METARとTAF

エル・アルト国際空港 ( SLLP / LPB ) - ボリビア ラパス
飛行場実況気象(Metar)
観測時間10/21 11:00 BOT (10/21 15:00 UTC)
風向・風速東 6m/s 瞬間風速11m/s
視程10km以上
天気現象
全天の4割程度の雲 雲底高度 520m
少しの雲 雲底高度 610m
全天の4割程度の雲 雲底高度 6100m
気温12℃
湿度50%
気圧1040hPa
METARSLLP 211500Z 08012G22KT 040V130 9999 SCT017 FEW020CB SCT200 12/02 Q1040
過去の天気等 Google飛行場航空写真 Wunderground天気予報

過去48時間のMETAR

飛行場予報(TAF)
発表時間: 10/21 06:35 BOT (10/21 10:35 UTC)
予報対象時間: 21日8時 BOT ~ 22日8時 BOT
風向・風速南東 3m/s
視程10km以上
全天の4割程度の雲 雲底高度 460m
21日14時 BOT ~ 21日18時 BOT に一時的に
風向・風速北東 5m/s 瞬間風速 10m/s
少しの積乱雲 雲底高度 700m
22日2時 BOT ~ 22日7時 BOT に一時的に
風向・風速東北東 3m/s
TAF SLLP 211035Z 2112/2212 14005KT 9999 SCT015 TX17/2120Z TN01/2210Z
TEMPO 2118/2122 05010G20KT FEW023CB
TEMPO 2206/2211 07006KT 4000E VCFG FEW002 SCT010